createdAt,value
2019-03-13T00:00:48.246Z,-919.24
2019-03-13T00:01:48.532Z,-906.85
2019-03-13T00:02:48.830Z,-910.76
2019-03-13T00:03:49.128Z,-913.43
2019-03-13T00:04:49.445Z,-924.80
2019-03-13T00:05:49.743Z,-918.18
2019-03-13T00:06:50.025Z,-916.84
2019-03-13T00:07:50.376Z,-913.79
2019-03-13T00:08:50.605Z,-914.79
2019-03-13T00:09:50.935Z,-919.49
2019-03-13T00:10:51.247Z,-911.82
2019-03-13T00:11:51.523Z,-909.57
2019-03-13T00:12:51.821Z,-910.02
2019-03-13T00:13:52.139Z,-905.51
2019-03-13T00:14:52.442Z,-905.93
2019-03-13T00:15:52.770Z,-907.26
2019-03-13T00:16:53.001Z,-910.39
2019-03-13T00:17:53.309Z,-904.00
2019-03-13T00:18:53.630Z,-910.13
2019-03-13T00:19:53.944Z,-916.54
2019-03-13T00:20:54.210Z,-908.72
2019-03-13T00:21:54.495Z,-920.80
2019-03-13T00:22:54.827Z,-915.48
2019-03-13T00:23:55.153Z,-914.78
2019-03-13T00:24:56.207Z,-909.36
2019-03-13T00:25:55.718Z,-906.49
2019-03-13T00:26:56.008Z,-915.24
2019-03-13T00:27:56.319Z,-908.33
2019-03-13T00:28:56.637Z,-911.43
2019-03-13T00:29:56.946Z,-911.41
2019-03-13T00:30:57.239Z,-910.71
2019-03-13T00:31:59.517Z,-922.23
2019-03-13T00:32:57.928Z,-910.92
2019-03-13T00:33:58.141Z,-912.95
2019-03-13T00:34:58.449Z,-909.59
2019-03-13T00:35:58.746Z,-911.53
2019-03-13T00:36:59.014Z,-908.33
2019-03-13T00:37:59.330Z,-910.22
2019-03-13T00:38:59.643Z,-911.49
2019-03-13T00:39:59.977Z,-908.82
2019-03-13T00:41:00.302Z,-919.38
2019-03-13T00:42:00.485Z,-913.70
2019-03-13T00:43:00.818Z,-915.74
2019-03-13T00:44:01.147Z,-913.08
2019-03-13T00:45:01.448Z,-916.50
2019-03-13T00:46:01.748Z,-913.69
2019-03-13T00:47:02.044Z,-909.29
2019-03-13T00:48:02.341Z,-912.80
2019-03-13T00:49:02.694Z,-904.63
2019-03-13T00:50:02.925Z,-918.70
2019-03-13T00:51:03.243Z,-920.74
2019-03-13T00:52:03.543Z,-909.65
2019-03-13T00:53:03.839Z,-910.75
2019-03-13T00:54:04.157Z,-920.37
2019-03-13T00:55:04.452Z,-912.26
2019-03-13T00:56:04.748Z,-908.95
2019-03-13T00:57:05.124Z,-904.37
2019-03-13T00:58:05.384Z,-914.13
2019-03-13T00:59:05.658Z,-905.62
2019-03-13T01:00:06.010Z,-903.94
2019-03-13T01:01:06.251Z,-914.61
2019-03-13T01:02:06.555Z,-911.93
2019-03-13T01:03:06.831Z,-913.27
2019-03-13T01:04:07.154Z,-904.32
2019-03-13T01:05:07.450Z,-907.49
2019-03-13T01:06:07.836Z,-909.68
2019-03-13T01:07:08.049Z,-908.05
2019-03-13T01:08:08.333Z,-908.40
2019-03-13T01:09:08.650Z,-913.04
2019-03-13T01:10:08.911Z,-908.97
2019-03-13T01:11:09.219Z,-912.97
2019-03-13T01:12:09.541Z,-914.06
2019-03-13T01:13:09.829Z,-909.82
2019-03-13T01:14:10.261Z,-904.20
2019-03-13T01:15:10.401Z,-912.78
2019-03-13T01:16:10.730Z,-901.50
2019-03-13T01:17:11.050Z,-906.90
2019-03-13T01:18:11.336Z,-903.98
2019-03-13T01:19:11.892Z,-908.31
2019-03-13T01:20:11.930Z,-915.21
2019-03-13T01:21:12.245Z,-919.51
2019-03-13T01:22:12.578Z,-901.07
2019-03-13T01:23:12.813Z,-908.78
2019-03-13T01:24:13.139Z,-911.00
2019-03-13T01:25:13.418Z,-909.82
2019-03-13T01:26:13.727Z,-908.05
2019-03-13T01:27:14.035Z,-903.54
2019-03-13T01:28:14.302Z,-903.01
2019-03-13T01:29:14.629Z,-906.49
2019-03-13T01:30:14.978Z,-908.62
2019-03-13T01:31:15.207Z,-915.15
2019-03-13T01:32:15.524Z,-911.92
2019-03-13T01:33:15.798Z,-906.58
2019-03-13T01:34:16.114Z,-913.64
2019-03-13T01:35:16.418Z,-904.39
2019-03-13T01:36:16.713Z,-903.58
2019-03-13T01:37:17.034Z,-912.24
2019-03-13T01:38:17.322Z,-903.34
2019-03-13T01:39:17.666Z,-897.35
2019-03-13T01:40:17.905Z,-900.73
2019-03-13T01:41:18.215Z,-907.86
2019-03-13T01:42:18.525Z,-905.62
2019-03-13T01:43:18.805Z,-891.58
2019-03-13T01:44:19.088Z,-887.41
2019-03-13T01:45:19.387Z,-888.21
2019-03-13T01:46:19.709Z,-888.82
2019-03-13T01:47:20.135Z,-885.80
2019-03-13T01:48:20.296Z,-891.64
2019-03-13T01:49:20.587Z,-889.35
2019-03-13T01:50:20.922Z,-879.98
2019-03-13T01:51:21.245Z,-880.39
2019-03-13T01:52:21.545Z,-879.93
2019-03-13T01:53:21.844Z,-885.77
2019-03-13T01:54:22.135Z,-897.51
2019-03-13T01:55:22.519Z,-896.49
2019-03-13T01:56:22.742Z,-892.52
2019-03-13T01:57:23.048Z,-900.74
2019-03-13T01:58:23.338Z,-893.05
2019-03-13T01:59:23.639Z,-890.50
2019-03-13T02:00:23.953Z,-898.25
2019-03-13T02:01:24.237Z,-890.14
2019-03-13T02:02:24.554Z,-891.42
2019-03-13T02:03:24.894Z,-890.05
2019-03-13T02:04:25.116Z,-892.52
2019-03-13T02:05:25.434Z,-881.43
2019-03-13T02:06:25.724Z,-885.76
2019-03-13T02:07:26.019Z,-882.12
2019-03-13T02:08:26.313Z,-882.50
2019-03-13T02:09:26.619Z,-887.81
2019-03-13T02:10:26.951Z,-886.24
2019-03-13T02:11:27.252Z,-882.26
2019-03-13T02:12:27.551Z,-883.29
2019-03-13T02:13:27.806Z,-886.73
2019-03-13T02:14:28.121Z,-888.66
2019-03-13T02:15:28.437Z,-886.78
2019-03-13T02:16:28.726Z,-885.63
2019-03-13T02:17:29.037Z,-883.61
2019-03-13T02:18:29.294Z,-890.75
2019-03-13T02:19:29.624Z,-887.44
2019-03-13T02:20:30.055Z,-887.02
2019-03-13T02:21:30.245Z,-889.60
2019-03-13T02:22:30.515Z,-887.58
2019-03-13T02:23:30.810Z,-887.10
2019-03-13T02:24:31.125Z,-888.50
2019-03-13T02:25:31.440Z,-893.38
2019-03-13T02:26:31.736Z,-891.07
2019-03-13T02:27:32.048Z,-885.02
2019-03-13T02:28:32.445Z,-889.68
2019-03-13T02:29:32.615Z,-886.84
2019-03-13T02:30:32.941Z,-882.58
2019-03-13T02:31:33.228Z,-889.19
2019-03-13T02:32:33.541Z,-890.65
2019-03-13T02:33:33.832Z,-889.06
2019-03-13T02:34:34.104Z,-888.21
2019-03-13T02:35:34.432Z,-886.68
2019-03-13T02:36:34.775Z,-884.68
2019-03-13T02:37:35.011Z,-890.68
2019-03-13T02:38:35.302Z,-889.27
2019-03-13T02:39:35.585Z,-890.55
2019-03-13T02:40:35.904Z,-888.31
2019-03-13T02:41:36.212Z,-884.33
2019-03-13T02:42:36.511Z,-883.27
2019-03-13T02:43:36.796Z,-885.57
2019-03-13T02:44:37.132Z,-884.60
2019-03-13T02:45:37.403Z,-884.40
2019-03-13T02:46:37.701Z,-883.56
2019-03-13T02:47:38.016Z,-881.89
2019-03-13T02:48:38.296Z,-883.59
2019-03-13T02:49:38.598Z,-882.68
2019-03-13T02:50:38.915Z,-892.46
2019-03-13T02:51:39.189Z,-888.98
2019-03-13T02:52:39.541Z,-944.37
2019-03-13T02:53:39.923Z,-943.66
2019-03-13T02:54:40.118Z,-940.70
2019-03-13T02:55:40.436Z,-947.21
2019-03-13T02:56:40.709Z,-942.92
2019-03-13T02:57:41.016Z,-945.16
2019-03-13T02:58:41.570Z,-937.78
2019-03-13T02:59:41.630Z,-944.37
2019-03-13T03:00:41.943Z,-949.23
2019-03-13T03:01:42.388Z,-946.47
2019-03-13T03:02:42.525Z,-950.27
2019-03-13T03:03:42.846Z,-949.99
2019-03-13T03:04:43.141Z,-945.82
2019-03-13T03:05:43.477Z,-950.42
2019-03-13T03:06:43.734Z,-892.05
2019-03-13T03:07:44.003Z,-948.48
2019-03-13T03:08:44.341Z,-948.78
2019-03-13T03:09:44.700Z,-944.24
2019-03-13T03:10:44.947Z,-955.03
2019-03-13T03:11:45.238Z,-952.86
2019-03-13T03:12:45.526Z,-951.46
2019-03-13T03:13:45.825Z,-898.65
2019-03-13T03:14:46.135Z,-951.67
2019-03-13T03:15:46.442Z,-957.38
2019-03-13T03:16:46.756Z,-947.85
2019-03-13T03:17:47.102Z,-950.98
2019-03-13T03:18:47.298Z,-951.94
2019-03-13T03:19:47.593Z,-957.17
2019-03-13T03:20:47.923Z,-954.24
2019-03-13T03:21:48.234Z,-956.04
2019-03-13T03:22:48.515Z,-955.36
2019-03-13T03:23:48.826Z,-946.82
2019-03-13T03:24:49.114Z,-958.08
2019-03-13T03:25:49.440Z,-952.60
2019-03-13T03:26:49.778Z,-946.71
2019-03-13T03:27:50.022Z,-948.58
2019-03-13T03:28:50.328Z,-948.62
2019-03-13T03:29:50.609Z,-947.45
2019-03-13T03:30:50.917Z,-947.33
2019-03-13T03:31:51.395Z,-943.92
2019-03-13T03:32:51.509Z,-949.93
2019-03-13T03:33:51.833Z,-946.65
2019-03-13T03:34:52.251Z,-943.35
2019-03-13T03:35:52.435Z,-944.55
2019-03-13T03:36:52.763Z,-940.50
2019-03-13T03:37:53.027Z,-948.70
2019-03-13T03:38:53.348Z,-953.76
2019-03-13T03:39:53.632Z,-957.09
2019-03-13T03:40:53.948Z,-971.53
2019-03-13T03:41:54.239Z,-971.50
2019-03-13T03:42:54.632Z,-962.59
2019-03-13T03:43:54.836Z,-970.05
2019-03-13T03:44:55.134Z,-967.58
2019-03-13T03:45:55.438Z,-971.59
2019-03-13T03:46:55.704Z,-970.01
2019-03-13T03:47:56.020Z,-970.46
2019-03-13T03:48:56.353Z,-967.21
2019-03-13T03:49:56.659Z,-964.96
2019-03-13T03:50:56.986Z,-963.14
2019-03-13T03:51:57.212Z,-962.00
2019-03-13T03:52:57.514Z,-966.10
2019-03-13T03:53:57.839Z,-967.45
2019-03-13T03:54:58.135Z,-967.60
2019-03-13T03:55:58.415Z,-965.00
2019-03-13T03:56:58.714Z,-960.99
2019-03-13T03:57:59.030Z,-964.01
2019-03-13T03:58:59.373Z,-960.67
2019-03-13T03:59:59.668Z,-960.71
2019-03-13T04:00:59.914Z,-959.07
2019-03-13T04:02:00.241Z,-956.17
2019-03-13T04:03:00.645Z,-960.68
2019-03-13T04:04:00.860Z,-961.23
2019-03-13T04:05:01.134Z,-961.97
2019-03-13T04:06:01.432Z,-961.66
2019-03-13T04:07:01.777Z,-955.12
2019-03-13T04:08:02.206Z,-958.56
2019-03-13T04:09:02.364Z,-958.46
2019-03-13T04:10:02.653Z,-965.15
2019-03-13T04:11:02.972Z,-914.55
2019-03-13T04:12:03.286Z,-907.91
2019-03-13T04:13:03.605Z,-903.51
2019-03-13T04:14:03.879Z,-907.75
2019-03-13T04:15:04.145Z,-909.20
2019-03-13T04:16:04.559Z,-911.23
2019-03-13T04:17:04.773Z,-908.55
2019-03-13T04:18:05.070Z,-908.30
2019-03-13T04:19:05.390Z,-907.78
2019-03-13T04:20:05.651Z,-911.02
2019-03-13T04:21:05.966Z,-915.96
2019-03-13T04:22:06.268Z,-911.78
2019-03-13T04:23:06.576Z,-910.93
2019-03-13T04:24:06.945Z,-911.34
2019-03-13T04:25:07.148Z,-919.29
2019-03-13T04:26:07.472Z,-912.03
2019-03-13T04:27:07.760Z,-919.62
2019-03-13T04:28:08.061Z,-909.46
2019-03-13T04:29:08.365Z,-921.70
2019-03-13T04:30:08.656Z,-913.19
2019-03-13T04:31:08.950Z,-911.56
2019-03-13T04:32:09.286Z,-911.43
2019-03-13T04:33:09.537Z,-925.36
2019-03-13T04:34:09.849Z,-922.94
2019-03-13T04:35:10.143Z,-911.70
2019-03-13T04:36:10.442Z,-915.36
2019-03-13T04:37:10.976Z,-915.91
2019-03-13T04:38:11.037Z,-916.74
2019-03-13T04:39:11.362Z,-917.41
2019-03-13T04:40:11.657Z,-916.25
2019-03-13T04:41:12.046Z,-919.75
2019-03-13T04:42:12.236Z,-916.71
2019-03-13T04:43:12.528Z,-916.23
2019-03-13T04:44:12.854Z,-916.89
2019-03-13T04:45:13.135Z,-919.28
2019-03-13T04:46:13.437Z,-912.95
2019-03-13T04:47:13.750Z,-917.01
2019-03-13T04:48:14.043Z,-911.75
2019-03-13T04:49:14.462Z,-915.36
2019-03-13T04:50:14.630Z,-915.86
2019-03-13T04:51:14.925Z,-919.51
2019-03-13T04:52:15.243Z,-909.72
2019-03-13T04:53:15.521Z,-913.45
2019-03-13T04:54:15.838Z,-917.09
2019-03-13T04:55:16.131Z,-911.70
2019-03-13T04:56:16.433Z,-917.09
2019-03-13T04:57:16.817Z,-923.09
2019-03-13T04:58:17.023Z,-915.60
2019-03-13T04:59:17.297Z,-910.89
2019-03-13T05:00:17.625Z,-912.47
2019-03-13T05:01:17.919Z,-913.01
2019-03-13T05:02:18.235Z,-914.42
2019-03-13T05:03:18.527Z,-912.41
2019-03-13T05:04:18.822Z,-916.22
2019-03-13T05:05:19.171Z,-913.51
2019-03-13T05:06:19.402Z,-907.90
2019-03-13T05:07:19.725Z,-924.36
2019-03-13T05:08:20.018Z,-912.17
2019-03-13T05:09:20.300Z,-921.02
2019-03-13T05:10:20.614Z,-919.92
2019-03-13T05:11:20.904Z,-909.51
2019-03-13T05:12:21.240Z,-914.64
2019-03-13T05:13:21.594Z,-917.67
2019-03-13T05:14:21.888Z,-918.17
2019-03-13T05:15:22.135Z,-912.42
2019-03-13T05:16:22.388Z,-913.57
2019-03-13T05:17:22.726Z,-916.79
2019-03-13T05:18:23.048Z,-913.01
2019-03-13T05:19:23.323Z,-893.33
2019-03-13T05:20:23.631Z,-892.52
2019-03-13T05:21:23.970Z,-910.39
2019-03-13T05:22:24.325Z,-921.69
2019-03-13T05:23:24.540Z,-910.25
2019-03-13T05:24:24.817Z,-913.72
2019-03-13T05:25:25.153Z,-910.34
2019-03-13T05:26:25.419Z,-913.31
2019-03-13T05:27:25.712Z,-907.89
2019-03-13T05:28:26.012Z,-911.43
2019-03-13T05:29:26.329Z,-909.60
2019-03-13T05:30:26.798Z,-905.93
2019-03-13T05:31:26.961Z,-894.70
2019-03-13T05:32:27.257Z,-903.17
2019-03-13T05:33:27.567Z,-909.16
2019-03-13T05:34:27.874Z,-896.12
2019-03-13T05:35:28.175Z,-886.95
2019-03-13T05:36:28.456Z,-881.59
2019-03-13T05:37:28.776Z,-886.18
2019-03-13T05:38:29.117Z,-904.98
2019-03-13T05:39:29.356Z,-889.75
2019-03-13T05:40:29.692Z,-883.61
2019-03-13T05:41:29.948Z,-896.14
2019-03-13T05:42:30.278Z,-886.11
2019-03-13T05:43:30.540Z,-901.59
2019-03-13T05:44:30.824Z,-899.18
2019-03-13T05:45:31.189Z,-899.64
2019-03-13T05:46:31.488Z,-893.86
2019-03-13T05:47:31.765Z,-892.62
2019-03-13T05:48:32.039Z,-892.12
2019-03-13T05:49:32.338Z,-880.84
2019-03-13T05:50:32.652Z,-865.65
2019-03-13T05:51:32.941Z,-882.56
2019-03-13T05:52:33.262Z,-891.91
2019-03-13T05:53:33.533Z,-886.17
2019-03-13T05:54:33.885Z,-893.07
2019-03-13T05:55:34.263Z,-886.43
2019-03-13T05:56:34.480Z,-882.82
2019-03-13T05:57:34.793Z,-895.02
2019-03-13T05:58:35.073Z,-892.64
2019-03-13T05:59:35.382Z,-958.72
2019-03-13T06:00:35.693Z,-904.48
2019-03-13T06:01:35.955Z,-953.37
2019-03-13T06:02:36.291Z,-952.36
2019-03-13T06:03:36.730Z,-951.84
2019-03-13T06:04:36.878Z,-952.02
2019-03-13T06:05:37.185Z,-954.59
2019-03-13T06:06:37.455Z,-947.75
2019-03-13T06:07:37.778Z,-952.71
2019-03-13T06:08:38.078Z,-948.08
2019-03-13T06:09:38.378Z,-948.69
2019-03-13T06:10:38.695Z,-955.17
2019-03-13T06:11:39.062Z,-945.90
2019-03-13T06:12:39.265Z,-928.79
2019-03-13T06:13:39.828Z,-939.74
2019-03-13T06:14:40.126Z,-935.71
2019-03-13T06:15:40.445Z,-941.04
2019-03-13T06:16:40.723Z,-930.73
2019-03-13T06:17:41.008Z,-945.09
2019-03-13T06:18:41.326Z,-942.63
2019-03-13T06:19:41.704Z,-927.82
2019-03-13T06:20:41.947Z,-935.11
2019-03-13T06:21:42.228Z,-951.64
2019-03-13T06:22:42.522Z,-943.66
2019-03-13T06:23:42.837Z,-944.81
2019-03-13T06:24:43.116Z,-929.38
2019-03-13T06:25:43.444Z,-926.09
2019-03-13T06:26:43.786Z,-934.99
2019-03-13T06:27:45.903Z,-943.27
2019-03-13T06:28:44.376Z,-937.52
2019-03-13T06:29:44.635Z,-943.05
2019-03-13T06:30:44.947Z,-948.44
2019-03-13T06:31:45.239Z,-941.54
2019-03-13T06:32:45.540Z,-949.06
2019-03-13T06:33:45.853Z,-944.16
2019-03-13T06:34:46.144Z,-944.53
2019-03-13T06:35:46.458Z,-935.61
2019-03-13T06:36:46.799Z,-947.12
2019-03-13T06:37:47.029Z,-952.60
2019-03-13T06:38:47.344Z,-940.95
2019-03-13T06:39:47.620Z,-943.37
2019-03-13T06:40:47.934Z,-938.01
2019-03-13T06:41:48.230Z,-944.06
2019-03-13T06:42:48.525Z,-946.69
2019-03-13T06:43:48.850Z,-946.54
2019-03-13T06:44:49.243Z,-947.18
2019-03-13T06:45:49.436Z,-939.69
2019-03-13T06:46:49.718Z,-950.39
2019-03-13T06:47:50.016Z,-947.42
2019-03-13T06:48:50.333Z,-949.26
2019-03-13T06:49:50.616Z,-892.68
2019-03-13T06:50:50.916Z,-894.17
2019-03-13T06:51:51.196Z,-888.43
2019-03-13T06:52:51.558Z,-892.21
2019-03-13T06:53:51.808Z,-893.10
2019-03-13T06:54:52.114Z,-886.87
2019-03-13T06:55:52.413Z,-885.52
2019-03-13T06:56:52.694Z,-888.42
2019-03-13T06:57:52.978Z,-890.72
2019-03-13T06:58:53.304Z,-903.49
2019-03-13T06:59:53.593Z,-898.88
2019-03-13T07:00:53.956Z,-903.99
2019-03-13T07:01:54.172Z,-891.53
2019-03-13T07:02:54.470Z,-900.22
2019-03-13T07:03:54.794Z,-899.79
2019-03-13T07:04:55.101Z,-895.75
2019-03-13T07:05:55.396Z,-893.80
2019-03-13T07:06:55.696Z,-894.69
2019-03-13T07:07:55.968Z,-897.75
2019-03-13T07:08:56.291Z,-898.66
2019-03-13T07:09:56.669Z,-904.60
2019-03-13T07:10:56.887Z,-903.74
2019-03-13T07:11:57.175Z,-885.98
2019-03-13T07:12:57.468Z,-891.75
2019-03-13T07:13:57.776Z,-891.59
2019-03-13T07:14:58.073Z,-901.74
2019-03-13T07:15:58.380Z,-880.22
2019-03-13T07:16:59.153Z,-898.53
2019-03-13T07:17:59.062Z,-904.67
2019-03-13T07:18:59.262Z,-899.93
2019-03-13T07:19:59.567Z,-903.54
2019-03-13T07:20:59.865Z,-886.25
2019-03-13T07:22:00.161Z,-895.98
2019-03-13T07:23:00.458Z,-901.15
2019-03-13T07:24:00.774Z,-904.88
2019-03-13T07:25:01.066Z,-901.52
2019-03-13T07:26:01.428Z,-899.68
2019-03-13T07:27:01.661Z,-900.46
2019-03-13T07:28:01.958Z,-883.37
2019-03-13T07:29:11.549Z,-897.64
2019-03-13T07:30:03.576Z,-907.50
2019-03-13T07:31:02.842Z,-898.04
2019-03-13T07:32:03.167Z,-902.10
2019-03-13T07:33:03.469Z,-899.97
2019-03-13T07:34:03.821Z,-893.00
2019-03-13T07:35:04.068Z,-901.38
2019-03-13T07:36:04.332Z,-892.46
2019-03-13T07:37:04.673Z,-900.43
2019-03-13T07:38:04.978Z,-900.59
2019-03-13T07:39:05.279Z,-898.00
2019-03-13T07:40:05.565Z,-899.29
2019-03-13T07:41:05.855Z,-903.31
2019-03-13T07:42:06.194Z,-905.52
2019-03-13T07:43:06.506Z,-909.11
2019-03-13T07:44:06.773Z,-906.40
2019-03-13T07:45:07.054Z,-900.09
2019-03-13T07:46:07.352Z,-892.98
2019-03-13T07:47:07.654Z,-902.91
2019-03-13T07:48:07.951Z,-906.54
2019-03-13T07:49:08.270Z,-903.96
2019-03-13T07:50:08.561Z,-902.49
2019-03-13T07:51:08.960Z,-897.66
2019-03-13T07:52:09.388Z,-903.61
2019-03-13T07:53:09.476Z,-897.93
2019-03-13T07:54:09.786Z,-900.14
2019-03-13T07:55:10.069Z,-893.95
2019-03-13T07:56:10.365Z,-892.92
2019-03-13T07:57:10.684Z,-900.98
2019-03-13T07:58:10.969Z,-908.09
2019-03-13T07:59:11.364Z,-894.80
2019-03-13T08:00:11.554Z,-904.28
2019-03-13T08:01:11.855Z,-903.36
2019-03-13T08:02:12.164Z,-900.89
2019-03-13T08:03:12.479Z,-896.32
2019-03-13T08:04:12.751Z,-902.63
2019-03-13T08:05:13.058Z,-902.10
2019-03-13T08:06:13.350Z,-899.64
2019-03-13T08:07:13.715Z,-901.09
2019-03-13T08:08:13.933Z,-904.79
2019-03-13T08:09:14.255Z,-900.63
2019-03-13T08:10:14.516Z,-873.79
2019-03-13T08:11:14.839Z,-896.95
2019-03-13T08:12:15.146Z,-892.80
2019-03-13T08:13:15.420Z,-910.45
2019-03-13T08:14:15.739Z,-889.46
2019-03-13T08:15:16.034Z,-889.70
2019-03-13T08:16:16.329Z,-906.44
2019-03-13T08:17:16.654Z,-908.78
2019-03-13T08:18:16.928Z,-906.62
2019-03-13T08:19:17.301Z,-910.57
2019-03-13T08:20:17.538Z,-902.55
2019-03-13T08:21:17.839Z,-908.83
2019-03-13T08:22:18.147Z,-901.89
2019-03-13T08:23:18.472Z,-897.69
2019-03-13T08:24:18.885Z,-904.26
2019-03-13T08:25:19.040Z,-906.68
2019-03-13T08:26:19.357Z,-903.87
2019-03-13T08:27:19.660Z,-899.85
2019-03-13T08:28:19.935Z,-905.75
2019-03-13T08:29:20.239Z,-908.13
2019-03-13T08:30:20.706Z,-901.21
2019-03-13T08:31:20.850Z,-901.38
2019-03-13T08:32:21.242Z,-918.16
2019-03-13T08:33:21.440Z,-907.41
2019-03-13T08:34:21.718Z,-915.09
2019-03-13T08:35:22.039Z,-887.21
2019-03-13T08:36:22.341Z,-905.49
2019-03-13T08:37:22.658Z,-914.16
2019-03-13T08:38:22.959Z,-908.78
2019-03-13T08:39:23.225Z,-910.21
2019-03-13T08:40:23.613Z,-909.03
2019-03-13T08:41:23.817Z,-914.16
2019-03-13T08:42:24.124Z,-914.77
2019-03-13T08:43:24.444Z,-902.61
2019-03-13T08:44:24.732Z,-905.21
2019-03-13T08:45:25.051Z,-902.19
2019-03-13T08:46:25.333Z,-914.06
2019-03-13T08:47:25.659Z,-914.25
2019-03-13T08:48:25.971Z,-903.57
2019-03-13T08:49:26.205Z,-898.63
2019-03-13T08:50:26.528Z,-904.22
2019-03-13T08:51:26.817Z,-893.54
2019-03-13T08:52:27.138Z,-884.75
2019-03-13T08:53:27.440Z,-902.49
2019-03-13T08:54:27.706Z,-900.41
2019-03-13T08:55:28.030Z,-896.88
2019-03-13T08:56:28.357Z,-898.98
2019-03-13T08:57:28.700Z,-906.53
2019-03-13T08:58:28.900Z,-911.46
2019-03-13T08:59:29.196Z,-903.26
2019-03-13T09:00:29.522Z,-895.57
2019-03-13T09:01:29.805Z,-909.87
2019-03-13T09:02:30.161Z,-901.36
2019-03-13T09:03:30.410Z,-900.62
2019-03-13T09:04:30.706Z,-903.51
2019-03-13T09:05:31.141Z,-902.68
2019-03-13T09:06:31.314Z,-906.47
2019-03-13T09:07:31.660Z,-905.88
2019-03-13T09:08:31.905Z,-914.50
2019-03-13T09:09:32.227Z,-916.56
2019-03-13T09:10:32.508Z,-901.98
2019-03-13T09:11:32.815Z,-903.64
2019-03-13T09:12:33.124Z,-906.95
2019-03-13T09:13:33.494Z,-899.47
2019-03-13T09:14:33.703Z,-903.52
2019-03-13T09:15:33.999Z,-851.79
2019-03-13T09:16:34.288Z,-906.57
2019-03-13T09:17:34.634Z,-903.44
2019-03-13T09:18:34.907Z,-906.21
2019-03-13T09:19:35.206Z,-904.61
2019-03-13T09:20:35.524Z,-901.95
2019-03-13T09:21:35.824Z,-898.01
2019-03-13T09:22:36.112Z,-904.83
2019-03-13T09:23:36.390Z,-895.90
2019-03-13T09:24:36.688Z,-908.12
2019-03-13T09:25:37.006Z,-905.55
2019-03-13T09:26:37.279Z,-904.22
2019-03-13T09:27:37.590Z,-899.37
2019-03-13T09:28:37.861Z,-914.15
2019-03-13T09:29:38.284Z,-906.23
2019-03-13T09:30:38.510Z,-910.75
2019-03-13T09:31:39.017Z,-909.12
2019-03-13T09:32:39.081Z,-909.59
2019-03-13T09:33:39.353Z,-903.23
2019-03-13T09:34:39.675Z,-878.81
2019-03-13T09:35:39.990Z,-889.70
2019-03-13T09:36:40.271Z,-903.40
2019-03-13T09:37:40.597Z,-910.49
2019-03-13T09:38:41.019Z,-898.20
2019-03-13T09:39:41.191Z,-899.94
2019-03-13T09:40:41.508Z,-912.44
2019-03-13T09:41:41.785Z,-916.70
2019-03-13T09:42:42.109Z,-920.58
2019-03-13T09:43:42.401Z,-910.91
2019-03-13T09:44:42.678Z,-902.69
2019-03-13T09:45:43.012Z,-903.81
2019-03-13T09:46:43.422Z,-907.50
2019-03-13T09:47:43.614Z,-908.83
2019-03-13T09:48:43.915Z,-908.92
2019-03-13T09:49:44.173Z,-902.28
2019-03-13T09:50:44.513Z,-910.10
2019-03-13T09:51:44.805Z,-904.89
2019-03-13T09:52:45.092Z,-911.40
2019-03-13T09:53:45.427Z,-906.64
2019-03-13T09:54:45.716Z,-868.73
2019-03-13T09:55:45.993Z,-903.85
2019-03-13T09:56:46.292Z,-900.97
2019-03-13T09:57:46.594Z,-906.67
2019-03-13T09:58:46.917Z,-899.02
2019-03-13T09:59:47.188Z,-895.81
2019-03-13T10:00:47.507Z,-898.21
2019-03-13T10:01:47.770Z,-895.80
2019-03-13T10:02:48.129Z,-895.51
2019-03-13T10:03:48.388Z,-897.00
2019-03-13T10:04:48.670Z,-895.35
2019-03-13T10:05:48.992Z,-903.22
2019-03-13T10:06:49.252Z,-899.11
2019-03-13T10:07:49.580Z,-898.84
2019-03-13T10:08:49.911Z,-900.73
2019-03-13T10:09:50.188Z,-899.36
2019-03-13T10:10:50.513Z,-903.83
2019-03-13T10:11:50.880Z,-903.74
2019-03-13T10:12:51.082Z,-909.72
2019-03-13T10:13:51.405Z,-904.26
2019-03-13T10:14:51.678Z,-903.18
2019-03-13T10:15:51.994Z,-910.53
2019-03-13T10:16:52.276Z,-893.81
2019-03-13T10:17:52.559Z,-904.70
2019-03-13T10:18:52.908Z,-909.07
2019-03-13T10:19:53.290Z,-914.01
2019-03-13T10:20:53.511Z,-888.80
2019-03-13T10:21:53.787Z,-894.55
2019-03-13T10:22:54.062Z,-910.76
2019-03-13T10:23:54.416Z,-916.51
2019-03-13T10:24:54.686Z,-918.98
2019-03-13T10:25:55.002Z,-918.71
2019-03-13T10:26:55.290Z,-912.82
2019-03-13T10:27:55.669Z,-906.38
2019-03-13T10:28:55.893Z,-905.68
2019-03-13T10:29:56.172Z,-916.04
2019-03-13T10:30:56.488Z,-913.25
2019-03-13T10:31:56.765Z,-910.96
2019-03-13T10:32:57.064Z,-902.58
2019-03-13T10:33:57.376Z,-907.56
2019-03-13T10:34:57.647Z,-892.53
2019-03-13T10:35:58.002Z,-901.86
2019-03-13T10:36:58.250Z,-905.27
2019-03-13T10:37:58.559Z,-895.00
2019-03-13T10:38:58.880Z,-895.88
2019-03-13T10:39:59.125Z,-902.78
2019-03-13T10:40:59.439Z,-899.21
2019-03-13T10:41:59.772Z,-904.46
2019-03-13T10:43:00.068Z,-896.96
2019-03-13T10:44:00.699Z,-906.56
2019-03-13T10:45:00.763Z,-908.73
2019-03-13T10:46:01.005Z,-897.27
2019-03-13T10:47:01.336Z,-880.36
2019-03-13T10:48:01.617Z,-888.29
2019-03-13T10:49:01.984Z,-907.49
2019-03-13T10:50:02.233Z,-903.16
2019-03-13T10:51:02.517Z,-907.60
2019-03-13T10:52:02.842Z,-907.02
2019-03-13T10:53:03.247Z,-883.79
2019-03-13T10:54:03.478Z,-899.99
2019-03-13T10:55:03.734Z,-823.94
2019-03-13T10:56:04.009Z,-896.87
2019-03-13T10:57:04.339Z,-903.81
2019-03-13T10:58:04.624Z,-900.37
2019-03-13T10:59:04.954Z,-903.40
2019-03-13T11:00:05.217Z,-888.02
2019-03-13T11:01:05.593Z,-899.49
2019-03-13T11:02:05.836Z,-902.77
2019-03-13T11:03:06.110Z,-899.79
2019-03-13T11:04:06.444Z,-900.57
2019-03-13T11:05:06.723Z,-895.27
2019-03-13T11:06:07.014Z,-906.31
2019-03-13T11:07:07.314Z,-895.72
2019-03-13T11:08:07.602Z,-906.20
2019-03-13T11:09:07.997Z,-888.92
2019-03-13T11:10:08.438Z,-911.31
2019-03-13T11:11:08.494Z,-897.88
2019-03-13T11:12:08.813Z,-888.63
2019-03-13T11:13:09.097Z,-891.81
2019-03-13T11:14:15.397Z,-899.65
2019-03-13T11:15:10.701Z,-885.90
2019-03-13T11:16:09.992Z,-909.48
2019-03-13T11:17:10.369Z,-904.82
2019-03-13T11:18:10.566Z,-902.99
2019-03-13T11:19:10.875Z,-910.22
2019-03-13T11:20:11.197Z,-910.85
2019-03-13T11:21:11.480Z,-919.69
2019-03-13T11:22:11.797Z,-958.98
2019-03-13T11:23:12.077Z,-955.93
2019-03-13T11:24:12.395Z,-955.50
2019-03-13T11:25:12.710Z,-951.94
2019-03-13T11:26:13.058Z,-959.52
2019-03-13T11:27:13.298Z,-942.52
2019-03-13T11:28:13.572Z,-952.32
2019-03-13T11:29:13.885Z,-948.42
2019-03-13T11:30:14.192Z,-945.50
2019-03-13T11:31:14.468Z,-947.81
2019-03-13T11:32:14.786Z,-949.96
2019-03-13T11:33:15.074Z,-888.43
2019-03-13T11:34:15.450Z,-944.35
2019-03-13T11:35:15.670Z,-942.11
2019-03-13T11:36:15.964Z,-940.27
2019-03-13T11:37:16.274Z,-910.02
2019-03-13T11:38:16.555Z,-937.32
2019-03-13T11:39:16.873Z,-951.26
2019-03-13T11:40:17.173Z,-940.16
2019-03-13T11:41:17.456Z,-893.41
2019-03-13T11:42:17.881Z,-945.03
2019-03-13T11:43:18.047Z,-889.88
2019-03-13T11:44:18.349Z,-959.88
2019-03-13T11:45:18.648Z,-940.28
2019-03-13T11:46:18.941Z,-941.84
2019-03-13T11:47:19.257Z,-947.41
2019-03-13T11:48:19.547Z,-942.80
2019-03-13T11:49:19.839Z,-951.58
2019-03-13T11:50:20.216Z,-953.73
2019-03-13T11:51:20.464Z,-942.61
2019-03-13T11:52:20.751Z,-949.04
2019-03-13T11:53:21.051Z,-947.88
2019-03-13T11:54:21.348Z,-956.14
2019-03-13T11:55:21.678Z,-942.56
2019-03-13T11:56:21.954Z,-946.81
2019-03-13T11:57:22.354Z,-940.97
2019-03-13T11:58:22.589Z,-945.42
2019-03-13T11:59:22.879Z,-949.16
2019-03-13T12:00:23.200Z,-962.55
2019-03-13T12:01:23.483Z,-949.32
2019-03-13T12:02:23.800Z,-938.36
2019-03-13T12:03:24.072Z,-929.17
2019-03-13T12:04:24.363Z,-943.31
2019-03-13T12:05:24.694Z,-940.04
2019-03-13T12:06:25.011Z,-956.59
2019-03-13T12:07:25.381Z,-900.36
2019-03-13T12:08:25.557Z,-951.32
2019-03-13T12:09:25.872Z,-938.78